createdAt,value
2018-06-01T00:00:05.767Z,95651
2018-06-01T00:00:37.827Z,95647
2018-06-01T00:01:09.843Z,95648
2018-06-01T00:01:41.866Z,95645
2018-06-01T00:02:14.642Z,95651
2018-06-01T00:02:46.727Z,95649
2018-06-01T00:03:18.756Z,95651
2018-06-01T00:03:50.799Z,95647
2018-06-01T00:04:22.815Z,95649
2018-06-01T00:04:54.870Z,95646
2018-06-01T00:05:26.861Z,95647
2018-06-01T00:05:58.904Z,95650
2018-06-01T00:06:30.948Z,95646
2018-06-01T00:07:02.944Z,95648
2018-06-01T00:07:34.980Z,95641
2018-06-01T00:08:07.003Z,95645
2018-06-01T00:08:39.045Z,95646
2018-06-01T00:09:11.055Z,95646
2018-06-01T00:09:43.079Z,95646
2018-06-01T00:10:15.156Z,95643
2018-06-01T00:10:47.151Z,95651
2018-06-01T00:11:19.944Z,95647
2018-06-01T00:11:52.021Z,95650
2018-06-01T00:12:24.024Z,95651
2018-06-01T00:12:56.840Z,95647
2018-06-01T00:13:28.854Z,95651
2018-06-01T00:14:00.878Z,95651
2018-06-01T00:14:33.176Z,95649
2018-06-01T00:15:05.232Z,95652
2018-06-01T00:15:37.253Z,95649
2018-06-01T00:16:10.049Z,95652
2018-06-01T00:16:42.068Z,95652
2018-06-01T00:17:14.848Z,95650
2018-06-01T00:17:46.887Z,95654
2018-06-01T00:18:18.947Z,95654
2018-06-01T00:18:51.764Z,95660
2018-06-01T00:19:23.790Z,95657
2018-06-01T00:19:56.047Z,95655
2018-06-01T00:20:28.071Z,95660
2018-06-01T00:21:00.854Z,95662
2018-06-01T00:21:32.887Z,95661
2018-06-01T00:22:05.670Z,95657
2018-06-01T00:22:37.693Z,95661
2018-06-01T00:23:09.708Z,95658
2018-06-01T00:23:41.737Z,95667
2018-06-01T00:24:13.777Z,95665
2018-06-01T00:24:45.803Z,95662
2018-06-01T00:25:17.825Z,95671
2018-06-01T00:25:49.848Z,95666
2018-06-01T00:26:21.867Z,95667
2018-06-01T00:26:54.656Z,95669
2018-06-01T00:27:26.680Z,95671
2018-06-01T00:27:58.703Z,95672
2018-06-01T00:28:30.738Z,95663
2018-06-01T00:29:02.772Z,95672
2018-06-01T00:29:34.792Z,95672
2018-06-01T00:30:07.582Z,95673
2018-06-01T00:30:39.615Z,95674
2018-06-01T00:31:12.404Z,95674
2018-06-01T00:31:44.431Z,95672
2018-06-01T00:32:17.229Z,95670
2018-06-01T00:32:49.275Z,95669
2018-06-01T00:33:21.300Z,95674
2018-06-01T00:33:54.089Z,95673
2018-06-01T00:34:26.116Z,95675
2018-06-01T00:34:58.126Z,95677
2018-06-01T00:35:30.142Z,95670
2018-06-01T00:36:02.194Z,95678
2018-06-01T00:36:34.266Z,95678
2018-06-01T00:37:06.301Z,95677
2018-06-01T00:37:38.332Z,95675
2018-06-01T00:38:11.123Z,95680
2018-06-01T00:38:43.164Z,95671
2018-06-01T00:39:15.187Z,95678
2018-06-01T00:39:47.219Z,95674
2018-06-01T00:40:19.245Z,95676
2018-06-01T00:40:51.527Z,95680
2018-06-01T00:41:23.552Z,95679
2018-06-01T00:41:55.577Z,95684
2018-06-01T00:42:27.605Z,95680
2018-06-01T00:42:59.634Z,95679
2018-06-01T00:43:31.676Z,95680
2018-06-01T00:44:03.709Z,95682
2018-06-01T00:44:35.723Z,95680
2018-06-01T00:45:08.513Z,95686
2018-06-01T00:45:40.640Z,95681
2018-06-01T00:46:12.863Z,95686
2018-06-01T00:46:44.860Z,95688
2018-06-01T00:47:16.895Z,95689
2018-06-01T00:47:49.694Z,95691
2018-06-01T00:48:21.725Z,95689
2018-06-01T00:48:54.516Z,95694
2018-06-01T00:49:26.556Z,95697
2018-06-01T00:49:58.583Z,95700
2018-06-01T00:50:31.380Z,95697
2018-06-01T00:51:03.411Z,95701
2018-06-01T00:51:36.216Z,95701
2018-06-01T00:52:08.270Z,95704
2018-06-01T00:52:40.276Z,95698
2018-06-01T00:53:13.064Z,95701
2018-06-01T00:53:45.111Z,95701
2018-06-01T00:54:17.905Z,95704
2018-06-01T00:54:49.928Z,95704
2018-06-01T00:55:22.720Z,95703
2018-06-01T00:55:54.744Z,95703
2018-06-01T00:56:27.535Z,95703
2018-06-01T00:56:59.558Z,95702
2018-06-01T00:57:32.349Z,95704
2018-06-01T00:58:04.461Z,95707
2018-06-01T00:58:36.446Z,95704
2018-06-01T00:59:09.245Z,95705
2018-06-01T00:59:41.270Z,95703
2018-06-01T01:00:13.347Z,95704
2018-06-01T01:00:45.374Z,95703
2018-06-01T01:01:17.403Z,95705
2018-06-01T01:01:50.232Z,95703
2018-06-01T01:02:22.254Z,95704
2018-06-01T01:02:54.263Z,95706
2018-06-01T01:03:26.290Z,95714
2018-06-01T01:03:58.339Z,95706
2018-06-01T01:04:30.347Z,95709
2018-06-01T01:05:02.362Z,95705
2018-06-01T01:05:34.377Z,95704
2018-06-01T01:06:06.408Z,95711
2018-06-01T01:06:38.426Z,95699
2018-06-01T01:07:11.239Z,95702
2018-06-01T01:07:43.252Z,95701
2018-06-01T01:08:16.068Z,95703
2018-06-01T01:08:48.202Z,95698
2018-06-01T01:09:20.993Z,95703
2018-06-01T01:09:53.028Z,95706
2018-06-01T01:10:25.039Z,95707
2018-06-01T01:10:57.069Z,95703
2018-06-01T01:11:29.088Z,95704
2018-06-01T01:12:01.152Z,95707
2018-06-01T01:12:33.173Z,95706
2018-06-01T01:13:05.195Z,95709
2018-06-01T01:13:37.255Z,95705
2018-06-01T01:14:09.268Z,95705
2018-06-01T01:14:41.300Z,95707
2018-06-01T01:15:13.320Z,95706
2018-06-01T01:15:46.104Z,95706
2018-06-01T01:16:18.140Z,95712
2018-06-01T01:16:50.934Z,95709
2018-06-01T01:17:22.940Z,95712
2018-06-01T01:17:55.740Z,95705
2018-06-01T01:18:27.774Z,95709
2018-06-01T01:18:59.814Z,95707
2018-06-01T01:19:31.844Z,95714
2018-06-01T01:20:03.871Z,95705
2018-06-01T01:20:35.922Z,95706
2018-06-01T01:21:07.914Z,95706
2018-06-01T01:21:39.967Z,95707
2018-06-01T01:22:12.764Z,95714
2018-06-01T01:22:44.798Z,95704
2018-06-01T01:23:17.596Z,95708
2018-06-01T01:23:49.614Z,95712
2018-06-01T01:24:22.411Z,95705
2018-06-01T01:24:54.434Z,95705
2018-06-01T01:25:27.228Z,95709
2018-06-01T01:25:59.284Z,95716
2018-06-01T01:26:31.307Z,95709
2018-06-01T01:27:04.115Z,95721
2018-06-01T01:27:36.166Z,95719
2018-06-01T01:28:08.171Z,95717
2018-06-01T01:28:40.985Z,95722
2018-06-01T01:29:13.010Z,95713
2018-06-01T01:29:45.233Z,95717
2018-06-01T01:30:17.222Z,95723
2018-06-01T01:30:49.241Z,95716
2018-06-01T01:31:21.293Z,95720
2018-06-01T01:31:53.314Z,95718
2018-06-01T01:32:25.323Z,95717
2018-06-01T01:32:57.608Z,95719
2018-06-01T01:33:29.623Z,95720
2018-06-01T01:34:01.680Z,95721
2018-06-01T01:34:33.713Z,95713
2018-06-01T01:35:06.509Z,95714
2018-06-01T01:35:38.539Z,95715
2018-06-01T01:36:11.336Z,95714
2018-06-01T01:36:43.363Z,95713
2018-06-01T01:37:16.181Z,95718
2018-06-01T01:37:48.174Z,95717
2018-06-01T01:38:20.980Z,95721
2018-06-01T01:38:52.995Z,95728
2018-06-01T01:39:25.790Z,95726
2018-06-01T01:39:57.852Z,95721
2018-06-01T01:40:29.885Z,95720
2018-06-01T01:41:01.910Z,95722
2018-06-01T01:41:34.711Z,95723
2018-06-01T01:42:06.764Z,95722
2018-06-01T01:42:38.788Z,95720
2018-06-01T01:43:11.646Z,95721
2018-06-01T01:43:43.666Z,95721
2018-06-01T01:44:15.679Z,95718
2018-06-01T01:44:47.724Z,95721
2018-06-01T01:45:20.506Z,95723
2018-06-01T01:45:52.547Z,95715
2018-06-01T01:46:24.578Z,95722
2018-06-01T01:46:57.403Z,95728
2018-06-01T01:47:29.457Z,95730
2018-06-01T01:48:01.487Z,95728
2018-06-01T01:48:33.528Z,95728
2018-06-01T01:49:05.556Z,95728
2018-06-01T01:49:38.345Z,95731
2018-06-01T01:50:10.393Z,95727
2018-06-01T01:50:43.177Z,95722
2018-06-01T01:51:15.225Z,95729
2018-06-01T01:51:47.255Z,95729
2018-06-01T01:52:20.040Z,95726
2018-06-01T01:52:52.090Z,95723
2018-06-01T01:53:24.367Z,95728
2018-06-01T01:53:56.406Z,95728
2018-06-01T01:54:28.485Z,95731
2018-06-01T01:55:00.513Z,95727
2018-06-01T01:55:32.543Z,95733
2018-06-01T01:56:05.345Z,95733
2018-06-01T01:56:37.375Z,95733
2018-06-01T01:57:09.420Z,95734
2018-06-01T01:57:41.458Z,95734
2018-06-01T01:58:14.243Z,95737
2018-06-01T01:58:46.302Z,95738
2018-06-01T01:59:19.085Z,95736
2018-06-01T01:59:51.123Z,95736
2018-06-01T02:00:23.184Z,95737
2018-06-01T02:00:55.206Z,95734
2018-06-01T02:01:28.021Z,95740
2018-06-01T02:02:00.027Z,95736
2018-06-01T02:02:32.840Z,95738
2018-06-01T02:03:04.871Z,95733
2018-06-01T02:03:36.895Z,95739
2018-06-01T02:04:09.710Z,95737
2018-06-01T02:04:41.800Z,95734
2018-06-01T02:05:13.776Z,95737
2018-06-01T02:05:46.568Z,95740
2018-06-01T02:06:18.592Z,95739
2018-06-01T02:06:51.411Z,95740
2018-06-01T02:07:23.450Z,95733
2018-06-01T02:07:55.478Z,95742
2018-06-01T02:08:27.499Z,95740
2018-06-01T02:09:00.299Z,95742
2018-06-01T02:09:32.339Z,95743
2018-06-01T02:10:05.144Z,95746
2018-06-01T02:10:37.176Z,95740
2018-06-01T02:11:09.191Z,95739
2018-06-01T02:11:41.988Z,95740
2018-06-01T02:12:14.017Z,95738
2018-06-01T02:12:46.816Z,95739
2018-06-01T02:13:18.836Z,95731
2018-06-01T02:13:51.627Z,95742
2018-06-01T02:14:23.894Z,95739
2018-06-01T02:14:55.932Z,95740
2018-06-01T02:15:28.769Z,95742
2018-06-01T02:16:01.215Z,95737
2018-06-01T02:16:33.497Z,95747
2018-06-01T02:17:05.491Z,95743
2018-06-01T02:17:37.505Z,95744
2018-06-01T02:18:10.286Z,95746
2018-06-01T02:18:42.376Z,95746
2018-06-01T02:19:14.406Z,95743
2018-06-01T02:19:46.429Z,95743
2018-06-01T02:20:19.250Z,95743
2018-06-01T02:20:51.282Z,95745
2018-06-01T02:21:23.297Z,95746
2018-06-01T02:21:56.078Z,95750
2018-06-01T02:22:28.119Z,95748
2018-06-01T02:23:00.945Z,95748
2018-06-01T02:23:32.943Z,95749
2018-06-01T02:24:05.737Z,95749
2018-06-01T02:24:37.984Z,95753
2018-06-01T02:25:10.057Z,95754
2018-06-01T02:25:42.074Z,95754
2018-06-01T02:26:14.865Z,95750
2018-06-01T02:26:46.897Z,95751
2018-06-01T02:27:19.710Z,95750
2018-06-01T02:27:51.763Z,95751
2018-06-01T02:28:23.762Z,95756
2018-06-01T02:28:56.626Z,95756
2018-06-01T02:29:29.423Z,95759
2018-06-01T02:30:01.457Z,95753
2018-06-01T02:30:34.236Z,95756
2018-06-01T02:31:06.291Z,95761
2018-06-01T02:31:38.349Z,95757
2018-06-01T02:32:10.374Z,95759
2018-06-01T02:32:43.331Z,95757
2018-06-01T02:33:15.332Z,95758
2018-06-01T02:33:47.355Z,95755
2018-06-01T02:34:20.141Z,95758
2018-06-01T02:34:52.174Z,95756
2018-06-01T02:35:24.975Z,95753
2018-06-01T02:35:57.020Z,95748
2018-06-01T02:36:29.055Z,95751
2018-06-01T02:37:01.174Z,95749
2018-06-01T02:37:33.174Z,95752
2018-06-01T02:38:05.200Z,95754
2018-06-01T02:38:37.976Z,95753
2018-06-01T02:39:10.774Z,95752
2018-06-01T02:39:42.798Z,95752
2018-06-01T02:40:14.838Z,95751
2018-06-01T02:40:46.893Z,95751
2018-06-01T02:41:19.677Z,95752
2018-06-01T02:41:51.711Z,95751
2018-06-01T02:42:24.502Z,95755
2018-06-01T02:42:56.543Z,95754
2018-06-01T02:43:28.571Z,95753
2018-06-01T02:44:00.590Z,95756
2018-06-01T02:44:32.621Z,95755
2018-06-01T02:45:04.643Z,95761
2018-06-01T02:45:36.673Z,95759
2018-06-01T02:46:08.684Z,95754
2018-06-01T02:46:40.706Z,95756
2018-06-01T02:47:12.735Z,95763
2018-06-01T02:47:45.516Z,95755
2018-06-01T02:48:17.541Z,95757
2018-06-01T02:48:49.569Z,95761
2018-06-01T02:49:21.660Z,95762
2018-06-01T02:49:53.680Z,95760
2018-06-01T02:50:25.742Z,95759
2018-06-01T02:50:57.760Z,95761
2018-06-01T02:51:29.786Z,95765
2018-06-01T02:52:01.811Z,95765
2018-06-01T02:52:34.608Z,95765
2018-06-01T02:53:06.632Z,95765
2018-06-01T02:53:39.429Z,95768
2018-06-01T02:54:11.468Z,95762
2018-06-01T02:54:43.493Z,95768
2018-06-01T02:55:15.519Z,95765
2018-06-01T02:55:47.594Z,95766
2018-06-01T02:56:19.607Z,95766
2018-06-01T02:56:51.679Z,95769
2018-06-01T02:57:23.704Z,95772
2018-06-01T02:57:55.719Z,95770
2018-06-01T02:58:28.508Z,95770
2018-06-01T02:59:00.560Z,95764
2018-06-01T02:59:33.383Z,95772
2018-06-01T03:00:05.431Z,95772
2018-06-01T03:00:37.435Z,95770
2018-06-01T03:01:09.694Z,95770
2018-06-01T03:01:41.719Z,95769
2018-06-01T03:02:13.786Z,95776
2018-06-01T03:02:46.557Z,95773
2018-06-01T03:03:18.593Z,95776
2018-06-01T03:03:50.718Z,95780
2018-06-01T03:04:22.711Z,95779
2018-06-01T03:04:54.740Z,95779
2018-06-01T03:05:27.528Z,95785
2018-06-01T03:05:59.563Z,95781
2018-06-01T03:06:32.355Z,95780
2018-06-01T03:07:04.400Z,95781
2018-06-01T03:07:36.446Z,95781
2018-06-01T03:08:09.233Z,95785
2018-06-01T03:08:41.273Z,95780
2018-06-01T03:09:13.307Z,95784
2018-06-01T03:09:46.098Z,95790
2018-06-01T03:10:18.113Z,95787
2018-06-01T03:10:50.899Z,95792
2018-06-01T03:11:22.942Z,95789
2018-06-01T03:11:54.958Z,95789
2018-06-01T03:12:26.999Z,95796
2018-06-01T03:12:59.017Z,95796
2018-06-01T03:13:31.047Z,95794
2018-06-01T03:14:03.850Z,95793
2018-06-01T03:14:35.887Z,95794
2018-06-01T03:15:07.917Z,95792
2018-06-01T03:15:40.707Z,95798
2018-06-01T03:16:12.979Z,95797
2018-06-01T03:16:45.018Z,95795
2018-06-01T03:17:17.069Z,95799
2018-06-01T03:17:49.841Z,95802
2018-06-01T03:18:21.919Z,95796
2018-06-01T03:18:53.930Z,95801
2018-06-01T03:19:26.748Z,95804
2018-06-01T03:19:58.759Z,95806
2018-06-01T03:20:30.784Z,95799
2018-06-01T03:21:03.581Z,95803
2018-06-01T03:21:35.769Z,95799
2018-06-01T03:22:07.790Z,95804
2018-06-01T03:22:39.813Z,95802
2018-06-01T03:23:12.609Z,95803
2018-06-01T03:23:44.646Z,95807
2018-06-01T03:24:16.664Z,95810
2018-06-01T03:24:48.714Z,95802
2018-06-01T03:25:20.735Z,95805
2018-06-01T03:25:52.766Z,95812
2018-06-01T03:26:24.797Z,95807
2018-06-01T03:26:57.615Z,95806
2018-06-01T03:27:29.650Z,95810
2018-06-01T03:28:01.665Z,95808
2018-06-01T03:28:34.470Z,95805
2018-06-01T03:29:06.549Z,95803
2018-06-01T03:29:38.604Z,95810
2018-06-01T03:30:10.643Z,95804
2018-06-01T03:30:42.651Z,95804
2018-06-01T03:31:14.770Z,95804
2018-06-01T03:31:46.796Z,95799
2018-06-01T03:32:18.835Z,95801
2018-06-01T03:32:50.854Z,95800
2018-06-01T03:33:22.889Z,95805
2018-06-01T03:33:54.889Z,95806
2018-06-01T03:34:26.941Z,95804
2018-06-01T03:34:58.975Z,95805
2018-06-01T03:35:31.010Z,95806
2018-06-01T03:36:03.821Z,95805
2018-06-01T03:36:35.853Z,95807
2018-06-01T03:37:07.875Z,95805
2018-06-01T03:37:40.001Z,95810
2018-06-01T03:38:11.983Z,95811
2018-06-01T03:38:44.802Z,95809
2018-06-01T03:39:16.825Z,95813
2018-06-01T03:39:48.851Z,95808
2018-06-01T03:40:21.638Z,95815
2018-06-01T03:40:53.671Z,95815
2018-06-01T03:41:25.716Z,95810
2018-06-01T03:41:58.450Z,95812
2018-06-01T03:42:30.496Z,95811
2018-06-01T03:43:02.514Z,95812
2018-06-01T03:43:34.525Z,95817
2018-06-01T03:44:07.348Z,95817
2018-06-01T03:44:39.354Z,95813
2018-06-01T03:45:12.139Z,95821
2018-06-01T03:45:44.194Z,95820
2018-06-01T03:46:16.282Z,95816
2018-06-01T03:46:48.300Z,95820
2018-06-01T03:47:20.323Z,95820
2018-06-01T03:47:53.118Z,95824
2018-06-01T03:48:25.170Z,95823
2018-06-01T03:48:57.185Z,95820
2018-06-01T03:49:29.202Z,95825
2018-06-01T03:50:01.261Z,95825
2018-06-01T03:50:33.304Z,95828
2018-06-01T03:51:05.332Z,95822
2018-06-01T03:51:37.379Z,95821
2018-06-01T03:52:09.406Z,95831
2018-06-01T03:52:42.190Z,95829
2018-06-01T03:53:14.398Z,95830
2018-06-01T03:53:46.430Z,95830
2018-06-01T03:54:18.454Z,95834
2018-06-01T03:54:50.500Z,95840
2018-06-01T03:55:23.265Z,95834
2018-06-01T03:55:55.305Z,95833
2018-06-01T03:56:28.109Z,95834
2018-06-01T03:57:00.123Z,95834
2018-06-01T03:57:32.969Z,95832
2018-06-01T03:58:04.983Z,95836
2018-06-01T03:58:37.012Z,95835
2018-06-01T03:59:09.027Z,95833
2018-06-01T03:59:41.103Z,95832
2018-06-01T04:00:13.137Z,95830
2018-06-01T04:00:45.152Z,95833
2018-06-01T04:01:17.184Z,95827
2018-06-01T04:01:49.223Z,95834
2018-06-01T04:02:21.277Z,95834
2018-06-01T04:02:54.055Z,95830
2018-06-01T04:03:26.311Z,95829
2018-06-01T04:03:58.371Z,95832
2018-06-01T04:04:30.396Z,95831
2018-06-01T04:05:02.429Z,95834
2018-06-01T04:05:35.221Z,95831
2018-06-01T04:06:07.235Z,95833
2018-06-01T04:06:39.274Z,95835
2018-06-01T04:07:11.289Z,95836
2018-06-01T04:07:43.309Z,95835
2018-06-01T04:08:16.107Z,95840
2018-06-01T04:08:48.143Z,95837
2018-06-01T04:09:20.162Z,95836
2018-06-01T04:09:52.232Z,95838
2018-06-01T04:10:24.241Z,95838
2018-06-01T04:10:56.306Z,95840
2018-06-01T04:11:28.333Z,95837
2018-06-01T04:12:00.362Z,95839
2018-06-01T04:12:32.449Z,95838
2018-06-01T04:13:04.468Z,95841
2018-06-01T04:13:36.750Z,95840
2018-06-01T04:14:08.764Z,95843
2018-06-01T04:14:40.786Z,95841
2018-06-01T04:15:12.828Z,95838
2018-06-01T04:15:44.843Z,95843
2018-06-01T04:16:16.866Z,95845
2018-06-01T04:16:48.904Z,95836
2018-06-01T04:17:21.730Z,95834
2018-06-01T04:17:53.764Z,95836
2018-06-01T04:18:25.784Z,95836
2018-06-01T04:18:57.839Z,95834
2018-06-01T04:19:30.635Z,95835
2018-06-01T04:20:02.735Z,95839
2018-06-01T04:20:34.751Z,95839
2018-06-01T04:21:06.832Z,95833
2018-06-01T04:21:38.883Z,95836
2018-06-01T04:22:10.900Z,95836
2018-06-01T04:22:42.949Z,95835
2018-06-01T04:23:14.955Z,95834
2018-06-01T04:23:47.962Z,95831
2018-06-01T04:24:20.017Z,95830
2018-06-01T04:24:52.059Z,95833
2018-06-01T04:25:24.083Z,95832
2018-06-01T04:25:56.875Z,95830
2018-06-01T04:26:28.910Z,95833
2018-06-01T04:27:01.721Z,95828
2018-06-01T04:27:33.758Z,95833
2018-06-01T04:28:05.859Z,95827
2018-06-01T04:28:37.887Z,95835
2018-06-01T04:29:09.900Z,95830
2018-06-01T04:29:41.927Z,95833
2018-06-01T04:30:14.725Z,95832
2018-06-01T04:30:46.793Z,95835
2018-06-01T04:31:18.848Z,95840
2018-06-01T04:31:50.866Z,95838
2018-06-01T04:32:22.903Z,95834
2018-06-01T04:32:55.714Z,95839
2018-06-01T04:33:27.743Z,95838
2018-06-01T04:33:59.784Z,95840
2018-06-01T04:34:32.578Z,95839
2018-06-01T04:35:04.601Z,95838
2018-06-01T04:35:37.420Z,95838
2018-06-01T04:36:09.429Z,95840
2018-06-01T04:36:42.254Z,95844
2018-06-01T04:37:14.279Z,95847
2018-06-01T04:37:46.331Z,95846
2018-06-01T04:38:18.366Z,95840
2018-06-01T04:38:50.394Z,95846
2018-06-01T04:39:23.205Z,95853
2018-06-01T04:39:55.242Z,95851
2018-06-01T04:40:27.312Z,95856
2018-06-01T04:40:59.330Z,95869
2018-06-01T04:41:31.389Z,95861
2018-06-01T04:42:03.491Z,95861
2018-06-01T04:42:35.495Z,95861
2018-06-01T04:43:07.511Z,95860
2018-06-01T04:43:39.529Z,95866
2018-06-01T04:44:11.563Z,95864
2018-06-01T04:44:43.610Z,95861
2018-06-01T04:45:15.683Z,95862
2018-06-01T04:45:47.696Z,95864
2018-06-01T04:46:19.724Z,95858
2018-06-01T04:46:51.766Z,95854
2018-06-01T04:47:23.803Z,95860
2018-06-01T04:47:55.815Z,95861
2018-06-01T04:48:27.867Z,95865
2018-06-01T04:49:00.659Z,95864
2018-06-01T04:49:32.680Z,95869
2018-06-01T04:50:04.931Z,95869
2018-06-01T04:50:36.960Z,95870
2018-06-01T04:51:09.770Z,95872
2018-06-01T04:51:41.834Z,95863
2018-06-01T04:52:13.851Z,95876
2018-06-01T04:52:45.910Z,95869
2018-06-01T04:53:17.956Z,95875
2018-06-01T04:53:49.984Z,95876
2018-06-01T04:54:22.814Z,95874
2018-06-01T04:54:54.843Z,95871
2018-06-01T04:55:27.100Z,95873
2018-06-01T04:55:59.134Z,95871
2018-06-01T04:56:31.170Z,95872
2018-06-01T04:57:03.962Z,95881
2018-06-01T04:57:36.048Z,95882
2018-06-01T04:58:08.084Z,95876
2018-06-01T04:58:40.094Z,95876
2018-06-01T04:59:12.134Z,95877
2018-06-01T04:59:44.150Z,95875
2018-06-01T05:00:16.187Z,95883
2018-06-01T05:00:48.247Z,95877
2018-06-01T05:01:20.283Z,95876
2018-06-01T05:01:52.307Z,95877
2018-06-01T05:02:24.340Z,95879
2018-06-01T05:02:56.376Z,95878
2018-06-01T05:03:28.401Z,95878
2018-06-01T05:04:00.427Z,95878
2018-06-01T05:04:32.450Z,95882
2018-06-01T05:05:05.234Z,95879
2018-06-01T05:05:37.436Z,95881
2018-06-01T05:06:09.470Z,95882
2018-06-01T05:06:41.507Z,95880
2018-06-01T05:07:13.537Z,95882
2018-06-01T05:07:45.592Z,95885
2018-06-01T05:08:18.395Z,95882
2018-06-01T05:08:50.451Z,95878
2018-06-01T05:09:22.464Z,95875
2018-06-01T05:09:54.528Z,95885
2018-06-01T05:10:26.558Z,95881
2018-06-01T05:10:58.595Z,95880
2018-06-01T05:11:30.616Z,95883
2018-06-01T05:12:02.665Z,95887
2018-06-01T05:12:34.708Z,95884
2018-06-01T05:13:06.737Z,95882
2018-06-01T05:13:38.759Z,95885
2018-06-01T05:14:11.558Z,95889
2018-06-01T05:14:43.591Z,95893
2018-06-01T05:15:16.438Z,95890
2018-06-01T05:15:48.655Z,95894
2018-06-01T05:16:20.702Z,95890
2018-06-01T05:16:52.714Z,95897
2018-06-01T05:17:25.516Z,95893
2018-06-01T05:17:57.568Z,95895
2018-06-01T05:18:29.586Z,95893
2018-06-01T05:19:02.396Z,95893
2018-06-01T05:19:34.429Z,95892
2018-06-01T05:20:06.471Z,95890
2018-06-01T05:20:38.594Z,95895
2018-06-01T05:21:10.801Z,95891
2018-06-01T05:21:42.858Z,95897
2018-06-01T05:22:14.898Z,95900
2018-06-01T05:22:46.987Z,95893
2018-06-01T05:23:19.000Z,95894
2018-06-01T05:23:51.068Z,95893
2018-06-01T05:24:23.110Z,95900
2018-06-01T05:24:55.160Z,95898
2018-06-01T05:25:27.177Z,95898
2018-06-01T05:25:59.970Z,95898
2018-06-01T05:26:32.231Z,95898
2018-06-01T05:27:04.274Z,95900
2018-06-01T05:27:36.307Z,95900
2018-06-01T05:28:09.116Z,95897
2018-06-01T05:28:41.184Z,95896
2018-06-01T05:29:13.213Z,95901
2018-06-01T05:29:45.260Z,95906
2018-06-01T05:30:17.310Z,95907
2018-06-01T05:30:49.331Z,95909
2018-06-01T05:31:22.136Z,95909
2018-06-01T05:31:54.165Z,95906
2018-06-01T05:32:26.198Z,95911
2018-06-01T05:32:58.999Z,95908
2018-06-01T05:33:31.028Z,95909
2018-06-01T05:34:03.841Z,95909
2018-06-01T05:34:35.861Z,95909
2018-06-01T05:35:07.890Z,95905
2018-06-01T05:35:40.681Z,95906
2018-06-01T05:36:12.750Z,95904
2018-06-01T05:36:45.513Z,95905
2018-06-01T05:37:17.571Z,95905
2018-06-01T05:37:49.620Z,95910
2018-06-01T05:38:21.679Z,95913
2018-06-01T05:38:53.693Z,95911
2018-06-01T05:39:25.738Z,95910
2018-06-01T05:39:58.541Z,95918
2018-06-01T05:40:30.554Z,95919
2018-06-01T05:41:03.362Z,95917
2018-06-01T05:41:35.397Z,95916
2018-06-01T05:42:07.426Z,95918
2018-06-01T05:42:40.227Z,95914
2018-06-01T05:43:12.283Z,95924
2018-06-01T05:43:44.320Z,95914
2018-06-01T05:44:16.361Z,95921
2018-06-01T05:44:49.138Z,95914
2018-06-01T05:45:21.193Z,95915
2018-06-01T05:45:53.218Z,95915
2018-06-01T05:46:26.037Z,95919
2018-06-01T05:46:58.060Z,95921
2018-06-01T05:47:30.087Z,95925
2018-06-01T05:48:02.892Z,95921
2018-06-01T05:48:34.958Z,95922
2018-06-01T05:49:06.999Z,95923
2018-06-01T05:49:39.026Z,95920
2018-06-01T05:50:11.063Z,95922
2018-06-01T05:50:43.870Z,95925
2018-06-01T05:51:15.903Z,95924
2018-06-01T05:51:47.935Z,95925
2018-06-01T05:52:20.770Z,95923
2018-06-01T05:52:53.007Z,95927
2018-06-01T05:53:25.040Z,95922
2018-06-01T05:53:57.103Z,95923
2018-06-01T05:54:29.197Z,95921
2018-06-01T05:55:01.194Z,95922
2018-06-01T05:55:33.223Z,95920
2018-06-01T05:56:06.014Z,95922
2018-06-01T05:56:38.055Z,95925
2018-06-01T05:57:10.858Z,95924
2018-06-01T05:57:42.902Z,95927
2018-06-01T05:58:14.919Z,95921
2018-06-01T05:58:47.129Z,95924
2018-06-01T05:59:19.167Z,95928
2018-06-01T05:59:51.210Z,95925
2018-06-01T06:00:23.222Z,95921
2018-06-01T06:00:56.047Z,95921
2018-06-01T06:01:28.083Z,95925
2018-06-01T06:02:00.123Z,95931
2018-06-01T06:02:32.186Z,95927
2018-06-01T06:03:04.475Z,95929
2018-06-01T06:03:36.496Z,95928
2018-06-01T06:04:08.557Z,95926
2018-06-01T06:04:40.611Z,95926
2018-06-01T06:05:12.633Z,95930
2018-06-01T06:05:44.670Z,95929
2018-06-01T06:06:17.476Z,95921
2018-06-01T06:06:49.504Z,95927
2018-06-01T06:07:21.527Z,95927
2018-06-01T06:07:54.342Z,95932
2018-06-01T06:08:26.605Z,95932
2018-06-01T06:08:58.621Z,95933
2018-06-01T06:09:31.417Z,95930
2018-06-01T06:10:03.471Z,95932
2018-06-01T06:10:35.474Z,95937
2018-06-01T06:11:08.286Z,95935
2018-06-01T06:11:40.322Z,95938
2018-06-01T06:12:12.362Z,95938
2018-06-01T06:12:45.187Z,95934
2018-06-01T06:13:17.210Z,95942
2018-06-01T06:13:50.137Z,95940
2018-06-01T06:14:22.195Z,95934
2018-06-01T06:14:54.989Z,95940
2018-06-01T06:15:27.018Z,95936
2018-06-01T06:15:59.805Z,95931
2018-06-01T06:16:31.832Z,95935
2018-06-01T06:17:04.623Z,95937
2018-06-01T06:17:36.663Z,95941
2018-06-01T06:18:09.454Z,95940
2018-06-01T06:18:41.507Z,95941
2018-06-01T06:19:13.524Z,95941
2018-06-01T06:19:46.346Z,95940
2018-06-01T06:20:18.348Z,95937
2018-06-01T06:20:51.184Z,95942
2018-06-01T06:21:23.215Z,95946
2018-06-01T06:21:55.245Z,95939
2018-06-01T06:22:27.286Z,95939
2018-06-01T06:22:59.318Z,95947
2018-06-01T06:23:32.126Z,95951
2018-06-01T06:24:04.143Z,95944
2018-06-01T06:24:36.925Z,95945
2018-06-01T06:25:08.987Z,95948
2018-06-01T06:25:41.014Z,95949
2018-06-01T06:26:13.813Z,95943
2018-06-01T06:26:45.850Z,95949
2018-06-01T06:27:18.676Z,95949
2018-06-01T06:27:50.647Z,95952
2018-06-01T06:28:22.688Z,95953
2018-06-01T06:28:54.727Z,95955
2018-06-01T06:29:26.947Z,95958
2018-06-01T06:29:58.986Z,95957
2018-06-01T06:30:31.017Z,95958
2018-06-01T06:31:03.807Z,95954
2018-06-01T06:31:35.833Z,95958
2018-06-01T06:32:08.647Z,95955
2018-06-01T06:32:40.662Z,95959
2018-06-01T06:33:12.714Z,95960
2018-06-01T06:33:45.499Z,95961
2018-06-01T06:34:17.525Z,95958
2018-06-01T06:34:50.539Z,95959
2018-06-01T06:35:22.572Z,95963
2018-06-01T06:35:54.601Z,95963
2018-06-01T06:36:27.403Z,95962
2018-06-01T06:36:59.415Z,95965
2018-06-01T06:37:32.227Z,95964
2018-06-01T06:38:04.264Z,95963
2018-06-01T06:38:36.303Z,95966
2018-06-01T06:39:09.102Z,95970
2018-06-01T06:39:41.115Z,95971
2018-06-01T06:40:13.902Z,95973
2018-06-01T06:40:45.953Z,95968
2018-06-01T06:41:17.977Z,95971
2018-06-01T06:41:50.041Z,95970
2018-06-01T06:42:22.823Z,95971
2018-06-01T06:42:54.852Z,95975
2018-06-01T06:43:26.876Z,95971
2018-06-01T06:43:58.898Z,95972
2018-06-01T06:44:30.922Z,95975
2018-06-01T06:45:02.956Z,95967
2018-06-01T06:45:34.986Z,95972
2018-06-01T06:46:07.007Z,95971
2018-06-01T06:46:39.039Z,95973
2018-06-01T06:47:11.089Z,95969
2018-06-01T06:47:43.138Z,95970
2018-06-01T06:48:15.924Z,95973
2018-06-01T06:48:47.957Z,95968
2018-06-01T06:49:20.744Z,95969
2018-06-01T06:49:52.764Z,95971
2018-06-01T06:50:25.582Z,95974
2018-06-01T06:50:57.635Z,95974
2018-06-01T06:51:29.670Z,95980
2018-06-01T06:52:01.691Z,95971
2018-06-01T06:52:34.479Z,95983
2018-06-01T06:53:06.509Z,95975
2018-06-01T06:53:39.289Z,95983
2018-06-01T06:54:11.335Z,95983
2018-06-01T06:54:43.356Z,95986